Triton — JD2765 — position and weather

sailwx.info

Track history (hours):
 
Tides and Currents Weather Stations Pressure Air Temp Water Temp Dewpoint Dewpoint Depression Visibility Wind Speed Wind Dir Waves Ship Positions

Triton

Last reported at 2017-Nov-19 15:41 UTC. Time now 2017-Nov-20 15:27 UTC.
Position N 34°33' E 135°27'.

Length 42 m; draft 3.5 m.

Type: Tug. MMSI: 431000673.

Date/timePositionNaut miles runAvg speedWind from/ knotsBaromVisibWave heightAir tempDewpointWater temp
2017-Nov-19 15:41N 34°33' E 135°27'0 0.0
2017-Nov-19 15:30N 34°33' E 135°27'0 0.0
2017-Nov-19 13:37N 34°33' E 135°27'0 0.0
2017-Nov-19 13:18N 34°33' E 135°27'0 0.0
2017-Nov-19 12:48N 34°33' E 135°27'0 0.0
2017-Nov-18 19:27N 34°33' E 135°27'0 0.0
2017-Nov-18 18:55N 34°33' E 135°27'0 0.0
2017-Nov-18 18:30N 34°33' E 135°27'0 0.0
2017-Nov-18 18:00N 34°33' E 135°27'0 0.0
2017-Nov-18 17:30N 34°33' E 135°27'0 0.0
2017-Nov-18 17:00N 34°33' E 135°27'0 0.0
2017-Nov-18 16:30N 34°33' E 135°27'0 0.0
2017-Nov-18 16:00N 34°33' E 135°27'0 0.0
2017-Nov-18 15:28N 34°33' E 135°27'0 0.0
2017-Nov-18 14:59N 34°33' E 135°27'0 0.0
2017-Nov-18 14:30N 34°33' E 135°27'0 0.0
2017-Nov-18 13:59N 34°33' E 135°27'0 0.0
2017-Nov-18 13:15N 34°33' E 135°27'0 0.0
2017-Nov-18 12:59N 34°33' E 135°27'0 0.0
2017-Nov-18 12:27N 34°33' E 135°27'0 0.0
2017-Nov-18 12:00N 34°33' E 135°27'0 0.0
2017-Nov-18 11:09N 34°33' E 135°27'0 0.0
2017-Nov-18 10:46N 34°33' E 135°27'0 0.0
2017-Nov-18 07:37N 34°33' E 135°27'0 0.0
2017-Nov-18 07:30N 34°33' E 135°27'0 0.0
2017-Nov-18 06:44N 34°33' E 135°27'0 0.0
2017-Nov-18 06:27N 34°33' E 135°27'0 0.0
2017-Nov-18 05:59N 34°33' E 135°27'0 0.0
2017-Nov-18 05:29N 34°33' E 135°27'0 0.0
2017-Nov-18 05:00N 34°33' E 135°27'0 0.0
2017-Nov-18 04:26N 34°33' E 135°27'1 2.7
2017-Nov-18 03:58N 34°33' E 135°25'1 1.8
2017-Nov-18 03:30N 34°33' E 135°24'0 0.0
2017-Nov-18 03:00N 34°33' E 135°24'2 3.9
2017-Nov-18 02:29N 34°33' E 135°27'0 0.1
2017-Nov-18 01:53N 34°33' E 135°27'0 0.0
2017-Nov-18 01:22N 34°33' E 135°27'0 0.0
2017-Nov-18 01:00N 34°33' E 135°27'0 0.0
2017-Nov-18 00:30N 34°33' E 135°27'0 0.0
2017-Nov-18 00:00N 34°33' E 135°27'0 0.0
2017-Nov-17 23:30N 34°33' E 135°27'0 0.0
2017-Nov-17 23:00N 34°33' E 135°27'0 0.0
2017-Nov-17 22:29N 34°33' E 135°27'0 0.0
2017-Nov-17 22:00N 34°33' E 135°27'0 0.0
2017-Nov-17 21:30N 34°33' E 135°27'0 0.0
2017-Nov-17 21:00N 34°33' E 135°27'0 0.0
2017-Nov-17 20:29N 34°33' E 135°27'0 0.0
2017-Nov-17 20:00N 34°33' E 135°27'0 0.0
2017-Nov-17 19:27N 34°33' E 135°27'0 0.0
2017-Nov-17 19:00N 34°33' E 135°27'0 0.0
2017-Nov-17 18:30N 34°33' E 135°27'0 0.0
2017-Nov-17 18:00N 34°33' E 135°27'0 0.0
2017-Nov-17 17:30N 34°33' E 135°27'0 0.0
2017-Nov-17 17:00N 34°33' E 135°27'0 0.0
2017-Nov-17 14:07N 34°33' E 135°27'0 0.0
2017-Nov-17 14:00N 34°33' E 135°27'0 0.0
2017-Nov-17 13:30N 34°33' E 135°27'0 0.2
2017-Nov-17 13:00N 34°33' E 135°27'2 5.0
2017-Nov-17 12:30N 34°32' E 135°24'0 0.0
2017-Nov-17 12:00N 34°32' E 135°24'1 0.2
2017-Nov-17 06:35N 34°31' E 135°24'1 7.3
2017-Nov-17 06:28N 34°31' E 135°24'0 0.9
2017-Nov-17 05:59N 34°32' E 135°25'2 3.8
2017-Nov-17 05:29N 34°33' E 135°25'1 0.1
2017-Nov-16 07:48N 34°33' E 135°27'2 7.2
2017-Nov-16 07:30N 34°33' E 135°24'1 1.7
2017-Nov-16 07:00N 34°32' E 135°24'0 0.3
2017-Nov-16 06:30N 34°32' E 135°24'1 0.2
2017-Nov-16 03:43N 34°31' E 135°24'0 0.0
2017-Nov-16 01:13N 34°31' E 135°24'0 0.0
2017-Nov-16 00:45N 34°31' E 135°24'0 0.0
2017-Nov-16 00:30N 34°31' E 135°24'0 0.0
2017-Nov-15 23:20N 34°31' E 135°24'1 1.3
2017-Nov-15 22:51N 34°32' E 135°24'0 0.4
2017-Nov-15 22:30N 34°32' E 135°24'0 0.9
2017-Nov-15 21:59N 34°32' E 135°24'1 1.2
2017-Nov-15 21:29N 34°32' E 135°24'2 4.7
2017-Nov-15 20:57N 34°33' E 135°27'0 0.0
2017-Nov-15 06:36N 34°33' E 135°27'2 7.3
2017-Nov-15 06:23N 34°33' E 135°25'411.2
2017-Nov-15 06:00N 34°38' E 135°23'3 5.5
2017-Nov-15 05:30N 34°38' E 135°27'0 0.1
2017-Nov-15 04:59N 34°38' E 135°27'0 0.7
2017-Nov-15 04:18N 34°38' E 135°27'0 0.0
2017-Nov-15 03:59N 34°38' E 135°27'0 0.0
2017-Nov-15 03:29N 34°38' E 135°27'0 0.0
2017-Nov-15 02:59N 34°38' E 135°27'0 0.0
2017-Nov-15 02:30N 34°38' E 135°27'0 0.0
2017-Nov-15 01:57N 34°38' E 135°27'0 0.0
2017-Nov-15 01:29N 34°38' E 135°27'0 0.0
2017-Nov-15 00:59N 34°38' E 135°27'0 0.0
2017-Nov-15 00:30N 34°38' E 135°27'0 0.0
2017-Nov-15 00:00N 34°38' E 135°27'0 0.0
2017-Nov-14 23:30N 34°38' E 135°27'0 1.0
2017-Nov-14 23:00N 34°38' E 135°27'1 2.3
2017-Nov-14 22:30N 34°39' E 135°26'5 9.5
2017-Nov-14 21:59N 34°34' E 135°24'2 0.7
2017-Nov-14 18:31N 34°33' E 135°27'0 0.0
2017-Nov-14 18:28N 34°33' E 135°27'0 0.0
2017-Nov-14 17:34N 34°33' E 135°27'0 0.0
2017-Nov-14 17:16N 34°33' E 135°27'0 0.0
2017-Nov-14 12:26N 34°33' E 135°27'0 0.0
2017-Nov-14 11:59N 34°33' E 135°27'0 0.0
2017-Nov-14 11:30N 34°33' E 135°27'0 0.0
2017-Nov-14 10:52N 34°33' E 135°27'0 0.0
2017-Nov-14 10:27N 34°33' E 135°27'0 0.0
2017-Nov-14 10:00N 34°33' E 135°27'0 0.0
2017-Nov-14 09:20N 34°33' E 135°27'0 0.0
2017-Nov-14 09:00N 34°33' E 135°27'4 7.5
2017-Nov-14 08:28N 34°32' E 135°22'713.7
2017-Nov-14 08:00N 34°26' E 135°18'713.7
2017-Nov-14 07:30N 34°22' E 135°11'813.7
2017-Nov-14 06:55N 34°17' E 135°03'614.3
2017-Nov-14 06:30N 34°12' E 135°00'713.7
2017-Nov-14 05:59N 34°06' E 134°55'  
2017-Nov-12 01:22N 34°35' E 134°53'511.9
2017-Nov-12 01:00N 34°37' E 134°58'510.8
2017-Nov-12 00:30N 34°36' E 135°04'4 8.2
2017-Nov-12 00:00N 34°34' E 135°08'4 8.9
2017-Nov-11 23:30N 34°29' E 135°07'713.1
2017-Nov-11 22:59N 34°23' E 135°03'712.9
2017-Nov-11 22:28N 34°17' E 134°59'511.5
2017-Nov-11 22:00N 34°12' E 134°59'3 5.2
2017-Nov-11 21:30N 34°10' E 135°01'510.9
2017-Nov-11 21:00N 34°13' E 135°07'2 3.1
2017-Nov-11 20:30N 34°13' E 135°09'0 0.0
2017-Nov-11 20:00N 34°13' E 135°09'0 0.0
2017-Nov-11 19:30N 34°13' E 135°09'0 0.0
2017-Nov-11 19:00N 34°13' E 135°09'0 0.0
2017-Nov-11 18:30N 34°13' E 135°09'0 0.0
2017-Nov-11 18:00N 34°13' E 135°09'0 0.0
2017-Nov-11 17:30N 34°13' E 135°09'0 0.0
2017-Nov-11 17:00N 34°13' E 135°09'0 0.0
2017-Nov-11 16:30N 34°13' E 135°09'0 0.0
2017-Nov-11 16:00N 34°13' E 135°09'0 0.0
2017-Nov-11 15:30N 34°13' E 135°09'0 0.0
2017-Nov-11 15:00N 34°13' E 135°09'0 0.0
2017-Nov-11 14:30N 34°13' E 135°09'0 0.0
2017-Nov-11 14:00N 34°13' E 135°09'0 0.0
2017-Nov-11 13:30N 34°13' E 135°09'0 0.0
2017-Nov-11 13:00N 34°13' E 135°09'0 0.0
2017-Nov-11 12:30N 34°13' E 135°09'0 0.0
2017-Nov-11 12:00N 34°13' E 135°09'0 0.0
2017-Nov-11 11:30N 34°13' E 135°09'0 0.0
2017-Nov-11 11:00N 34°13' E 135°09'0 0.0
2017-Nov-11 10:30N 34°13' E 135°09'0 0.0
2017-Nov-11 10:00N 34°13' E 135°09'0 0.0
2017-Nov-11 09:30N 34°13' E 135°09'0 0.0
2017-Nov-11 09:00N 34°13' E 135°09'0 0.0
2017-Nov-11 08:30N 34°13' E 135°09'0 0.0
2017-Nov-11 08:00N 34°13' E 135°09'0 0.0
2017-Nov-11 07:30N 34°13' E 135°09'0 0.0
2017-Nov-11 07:00N 34°13' E 135°09'0 0.0
2017-Nov-11 06:30N 34°13' E 135°09'0 0.0
2017-Nov-11 06:00N 34°13' E 135°09'0 0.0
2017-Nov-11 05:30N 34°13' E 135°09'5 9.4
2017-Nov-11 05:00N 34°15' E 135°04'610.7
2017-Nov-11 04:26N 34°21' E 135°07'512.2
2017-Nov-11 04:00N 34°23' E 135°12'612.4
2017-Nov-11 03:30N 34°27' E 135°18'612.3
2017-Nov-11 03:00N 34°32' E 135°23'1 1.4
2017-Nov-11 02:30N 34°32' E 135°24'2 3.1
2017-Nov-11 02:00N 34°33' E 135°25'0 0.3
2017-Nov-11 01:30N 34°33' E 135°25'0 0.1
2017-Nov-11 00:58N 34°33' E 135°25'1 1.3
2017-Nov-11 00:29N 34°33' E 135°25'2 3.8
2017-Nov-11 00:00N 34°33' E 135°23'1 2.7
2017-Nov-10 23:30N 34°34' E 135°21'4 8.7
2017-Nov-10 23:00N 34°33' E 135°27'0 0.1
2017-Nov-10 22:30N 34°33' E 135°27'0 0.0
2017-Nov-10 22:00N 34°33' E 135°27'0 0.0
2017-Nov-10 21:26N 34°33' E 135°27'0 0.0
2017-Nov-10 20:14N 34°33' E 135°27'0 0.0
2017-Nov-10 19:01N 34°33' E 135°27'0 0.0
2017-Nov-10 18:43N 34°33' E 135°27'0 0.0
2017-Nov-10 18:29N 34°33' E 135°27'0 0.0
2017-Nov-10 18:00N 34°33' E 135°27'0 0.0
2017-Nov-10 17:30N 34°33' E 135°27'0 0.0
2017-Nov-10 16:38N 34°33' E 135°27'0 0.0
2017-Nov-10 16:28N 34°33' E 135°27'0 0.0
2017-Nov-10 15:59N 34°33' E 135°27'0 0.0
2017-Nov-10 15:28N 34°33' E 135°27'0 0.0
2017-Nov-10 14:59N 34°33' E 135°27'0 0.0
2017-Nov-10 13:54N 34°33' E 135°27'0 0.0
2017-Nov-10 13:20N 34°33' E 135°27'0 0.0
2017-Nov-10 12:50N 34°33' E 135°27'0 0.0
2017-Nov-10 12:28N 34°33' E 135°27'0 0.0
2017-Nov-10 12:00N 34°33' E 135°27'0 0.0
2017-Nov-10 11:30N 34°33' E 135°27'0 0.0
2017-Nov-10 11:00N 34°33' E 135°27'0 0.0
2017-Nov-10 10:25N 34°33' E 135°27'0 0.0
2017-Nov-10 09:41N 34°33' E 135°27'0 0.0
2017-Nov-10 08:34N 34°33' E 135°27'0 0.0
2017-Nov-10 08:29N 34°33' E 135°27'0 0.0
2017-Nov-10 08:00N 34°33' E 135°27'0 0.0
2017-Nov-10 07:29N 34°33' E 135°27'0 0.0
2017-Nov-10 07:00N 34°33' E 135°27'0 0.0
2017-Nov-10 06:25N 34°33' E 135°27'0 0.0
2017-Nov-10 06:00N 34°33' E 135°27'0 0.0
2017-Nov-10 05:25N 34°33' E 135°27'0 0.0
2017-Nov-10 04:07N 34°33' E 135°27'0 0.0
2017-Nov-10 03:50N 34°33' E 135°27'1 1.7
2017-Nov-10 03:28N 34°33' E 135°26'4 8.7
2017-Nov-10 02:57N 34°33' E 135°21'3 5.5
2017-Nov-10 02:24N 34°33' E 135°24'0 1.2
2017-Nov-10 02:00N 34°33' E 135°25'0 0.2
2017-Nov-10 01:27N 34°33' E 135°25'0 0.1
2017-Nov-10 00:59N 34°33' E 135°25'0 0.4
2017-Nov-10 00:30N 34°33' E 135°25'0 0.0
2017-Nov-09 23:58N 34°33' E 135°25'0 0.2
2017-Nov-09 23:30N 34°33' E 135°25'0 0.2
2017-Nov-09 23:00N 34°33' E 135°25'0 0.1
2017-Nov-09 22:30N 34°33' E 135°25'0 0.1
2017-Nov-09 22:00N 34°33' E 135°25'0 0.2
2017-Nov-09 21:30N 34°33' E 135°25'0 0.1
2017-Nov-09 21:00N 34°33' E 135°25'0 0.0
2017-Nov-09 20:30N 34°33' E 135°25'0 0.0
2017-Nov-09 20:00N 34°33' E 135°25'0 0.1
2017-Nov-09 19:30N 34°33' E 135°25'0 0.1
2017-Nov-09 19:00N 34°33' E 135°25'0 0.2
2017-Nov-09 18:30N 34°33' E 135°25'0 0.2
2017-Nov-09 18:00N 34°33' E 135°25'0 0.1
2017-Nov-09 17:30N 34°33' E 135°25'0 0.2
2017-Nov-09 17:01N 34°33' E 135°25'0 0.1
2017-Nov-09 16:30N 34°33' E 135°25'0 0.1
2017-Nov-09 16:00N 34°33' E 135°25'  
Track history (hours):
 
Tides and Currents Weather Stations Pressure Air Temp Water Temp Dewpoint Dewpoint Depression Visibility Wind Speed Wind Dir Waves Ship Positions

Triton

Last reported at 2017-Nov-19 15:41 UTC. Time now 2017-Nov-20 15:27 UTC.
Position N 34°33' E 135°27'.

Length 42 m; draft 3.5 m.

Type: Tug. MMSI: 431000673.

Date/timePositionNaut miles runAvg speedWind from/ knotsBaromVisibWave heightAir tempDewpointWater temp
2017-Nov-19 15:41N 34°33' E 135°27'0 0.0
2017-Nov-19 15:30N 34°33' E 135°27'0 0.0
2017-Nov-19 13:37N 34°33' E 135°27'0 0.0
2017-Nov-19 13:18N 34°33' E 135°27'0 0.0
2017-Nov-19 12:48N 34°33' E 135°27'0 0.0
2017-Nov-18 19:27N 34°33' E 135°27'0 0.0
2017-Nov-18 18:55N 34°33' E 135°27'0 0.0
2017-Nov-18 18:30N 34°33' E 135°27'0 0.0
2017-Nov-18 18:00N 34°33' E 135°27'0 0.0
2017-Nov-18 17:30N 34°33' E 135°27'0 0.0
2017-Nov-18 17:00N 34°33' E 135°27'0 0.0
2017-Nov-18 16:30N 34°33' E 135°27'0 0.0
2017-Nov-18 16:00N 34°33' E 135°27'0 0.0
2017-Nov-18 15:28N 34°33' E 135°27'0 0.0
2017-Nov-18 14:59N 34°33' E 135°27'0 0.0
2017-Nov-18 14:30N 34°33' E 135°27'0 0.0
2017-Nov-18 13:59N 34°33' E 135°27'0 0.0
2017-Nov-18 13:15N 34°33' E 135°27'0 0.0
2017-Nov-18 12:59N 34°33' E 135°27'0 0.0
2017-Nov-18 12:27N 34°33' E 135°27'0 0.0
2017-Nov-18 12:00N 34°33' E 135°27'0 0.0
2017-Nov-18 11:09N 34°33' E 135°27'0 0.0
2017-Nov-18 10:46N 34°33' E 135°27'0 0.0
2017-Nov-18 07:37N 34°33' E 135°27'0 0.0
2017-Nov-18 07:30N 34°33' E 135°27'0 0.0
2017-Nov-18 06:44N 34°33' E 135°27'0 0.0
2017-Nov-18 06:27N 34°33' E 135°27'0 0.0
2017-Nov-18 05:59N 34°33' E 135°27'0 0.0
2017-Nov-18 05:29N 34°33' E 135°27'0 0.0
2017-Nov-18 05:00N 34°33' E 135°27'0 0.0
2017-Nov-18 04:26N 34°33' E 135°27'1 2.7
2017-Nov-18 03:58N 34°33' E 135°25'1 1.8
2017-Nov-18 03:30N 34°33' E 135°24'0 0.0
2017-Nov-18 03:00N 34°33' E 135°24'2 3.9
2017-Nov-18 02:29N 34°33' E 135°27'0 0.1
2017-Nov-18 01:53N 34°33' E 135°27'0 0.0
2017-Nov-18 01:22N 34°33' E 135°27'0 0.0
2017-Nov-18 01:00N 34°33' E 135°27'0 0.0
2017-Nov-18 00:30N 34°33' E 135°27'0 0.0
2017-Nov-18 00:00N 34°33' E 135°27'0 0.0
2017-Nov-17 23:30N 34°33' E 135°27'0 0.0
2017-Nov-17 23:00N 34°33' E 135°27'0 0.0
2017-Nov-17 22:29N 34°33' E 135°27'0 0.0
2017-Nov-17 22:00N 34°33' E 135°27'0 0.0
2017-Nov-17 21:30N 34°33' E 135°27'0 0.0
2017-Nov-17 21:00N 34°33' E 135°27'0 0.0
2017-Nov-17 20:29N 34°33' E 135°27'0 0.0
2017-Nov-17 20:00N 34°33' E 135°27'0 0.0
2017-Nov-17 19:27N 34°33' E 135°27'0 0.0
2017-Nov-17 19:00N 34°33' E 135°27'0 0.0
2017-Nov-17 18:30N 34°33' E 135°27'0 0.0
2017-Nov-17 18:00N 34°33' E 135°27'0 0.0
2017-Nov-17 17:30N 34°33' E 135°27'0 0.0
2017-Nov-17 17:00N 34°33' E 135°27'0 0.0
2017-Nov-17 14:07N 34°33' E 135°27'0 0.0
2017-Nov-17 14:00N 34°33' E 135°27'0 0.0
2017-Nov-17 13:30N 34°33' E 135°27'0 0.2
2017-Nov-17 13:00N 34°33' E 135°27'2 5.0
2017-Nov-17 12:30N 34°32' E 135°24'0 0.0
2017-Nov-17 12:00N 34°32' E 135°24'1 0.2
2017-Nov-17 06:35N 34°31' E 135°24'1 7.3
2017-Nov-17 06:28N 34°31' E 135°24'0 0.9
2017-Nov-17 05:59N 34°32' E 135°25'2 3.8
2017-Nov-17 05:29N 34°33' E 135°25'1 0.1
2017-Nov-16 07:48N 34°33' E 135°27'2 7.2
2017-Nov-16 07:30N 34°33' E 135°24'1 1.7
2017-Nov-16 07:00N 34°32' E 135°24'0 0.3
2017-Nov-16 06:30N 34°32' E 135°24'1 0.2
2017-Nov-16 03:43N 34°31' E 135°24'0 0.0
2017-Nov-16 01:13N 34°31' E 135°24'0 0.0
2017-Nov-16 00:45N 34°31' E 135°24'0 0.0
2017-Nov-16 00:30N 34°31' E 135°24'0 0.0
2017-Nov-15 23:20N 34°31' E 135°24'1 1.3
2017-Nov-15 22:51N 34°32' E 135°24'0 0.4
2017-Nov-15 22:30N 34°32' E 135°24'0 0.9
2017-Nov-15 21:59N 34°32' E 135°24'1 1.2
2017-Nov-15 21:29N 34°32' E 135°24'2 4.7
2017-Nov-15 20:57N 34°33' E 135°27'0 0.0
2017-Nov-15 06:36N 34°33' E 135°27'2 7.3
2017-Nov-15 06:23N 34°33' E 135°25'411.2
2017-Nov-15 06:00N 34°38' E 135°23'3 5.5
2017-Nov-15 05:30N 34°38' E 135°27'0 0.1
2017-Nov-15 04:59N 34°38' E 135°27'0 0.7
2017-Nov-15 04:18N 34°38' E 135°27'0 0.0
2017-Nov-15 03:59N 34°38' E 135°27'0 0.0
2017-Nov-15 03:29N 34°38' E 135°27'0 0.0
2017-Nov-15 02:59N 34°38' E 135°27'0 0.0
2017-Nov-15 02:30N 34°38' E 135°27'0 0.0
2017-Nov-15 01:57N 34°38' E 135°27'0 0.0
2017-Nov-15 01:29N 34°38' E 135°27'0 0.0
2017-Nov-15 00:59N 34°38' E 135°27'0 0.0
2017-Nov-15 00:30N 34°38' E 135°27'0 0.0
2017-Nov-15 00:00N 34°38' E 135°27'0 0.0
2017-Nov-14 23:30N 34°38' E 135°27'0 1.0
2017-Nov-14 23:00N 34°38' E 135°27'1 2.3
2017-Nov-14 22:30N 34°39' E 135°26'5 9.5
2017-Nov-14 21:59N 34°34' E 135°24'2 0.7
2017-Nov-14 18:31N 34°33' E 135°27'0 0.0
2017-Nov-14 18:28N 34°33' E 135°27'0 0.0
2017-Nov-14 17:34N 34°33' E 135°27'0 0.0
2017-Nov-14 17:16N 34°33' E 135°27'0 0.0
2017-Nov-14 12:26N 34°33' E 135°27'0 0.0
2017-Nov-14 11:59N 34°33' E 135°27'0 0.0
2017-Nov-14 11:30N 34°33' E 135°27'0 0.0
2017-Nov-14 10:52N 34°33' E 135°27'0 0.0
2017-Nov-14 10:27N 34°33' E 135°27'0 0.0
2017-Nov-14 10:00N 34°33' E 135°27'0 0.0
2017-Nov-14 09:20N 34°33' E 135°27'0 0.0
2017-Nov-14 09:00N 34°33' E 135°27'4 7.5
2017-Nov-14 08:28N 34°32' E 135°22'713.7
2017-Nov-14 08:00N 34°26' E 135°18'713.7
2017-Nov-14 07:30N 34°22' E 135°11'813.7
2017-Nov-14 06:55N 34°17' E 135°03'614.3
2017-Nov-14 06:30N 34°12' E 135°00'713.7
2017-Nov-14 05:59N 34°06' E 134°55'  
2017-Nov-12 01:22N 34°35' E 134°53'511.9
2017-Nov-12 01:00N 34°37' E 134°58'510.8
2017-Nov-12 00:30N 34°36' E 135°04'4 8.2
2017-Nov-12 00:00N 34°34' E 135°08'4 8.9
2017-Nov-11 23:30N 34°29' E 135°07'713.1
2017-Nov-11 22:59N 34°23' E 135°03'712.9
2017-Nov-11 22:28N 34°17' E 134°59'511.5
2017-Nov-11 22:00N 34°12' E 134°59'3 5.2
2017-Nov-11 21:30N 34°10' E 135°01'510.9
2017-Nov-11 21:00N 34°13' E 135°07'2 3.1
2017-Nov-11 20:30N 34°13' E 135°09'0 0.0
2017-Nov-11 20:00N 34°13' E 135°09'0 0.0
2017-Nov-11 19:30N 34°13' E 135°09'0 0.0
2017-Nov-11 19:00N 34°13' E 135°09'0 0.0
2017-Nov-11 18:30N 34°13' E 135°09'0 0.0
2017-Nov-11 18:00N 34°13' E 135°09'0 0.0
2017-Nov-11 17:30N 34°13' E 135°09'0 0.0
2017-Nov-11 17:00N 34°13' E 135°09'0 0.0
2017-Nov-11 16:30N 34°13' E 135°09'0 0.0
2017-Nov-11 16:00N 34°13' E 135°09'0 0.0
2017-Nov-11 15:30N 34°13' E 135°09'0 0.0
2017-Nov-11 15:00N 34°13' E 135°09'0 0.0
2017-Nov-11 14:30N 34°13' E 135°09'0 0.0
2017-Nov-11 14:00N 34°13' E 135°09'0 0.0
2017-Nov-11 13:30N 34°13' E 135°09'0 0.0
2017-Nov-11 13:00N 34°13' E 135°09'0 0.0
2017-Nov-11 12:30N 34°13' E 135°09'0 0.0
2017-Nov-11 12:00N 34°13' E 135°09'0 0.0
2017-Nov-11 11:30N 34°13' E 135°09'0 0.0
2017-Nov-11 11:00N 34°13' E 135°09'0 0.0
2017-Nov-11 10:30N 34°13' E 135°09'0 0.0
2017-Nov-11 10:00N 34°13' E 135°09'0 0.0
2017-Nov-11 09:30N 34°13' E 135°09'0 0.0
2017-Nov-11 09:00N 34°13' E 135°09'0 0.0
2017-Nov-11 08:30N 34°13' E 135°09'0 0.0
2017-Nov-11 08:00N 34°13' E 135°09'0 0.0
2017-Nov-11 07:30N 34°13' E 135°09'0 0.0
2017-Nov-11 07:00N 34°13' E 135°09'0 0.0
2017-Nov-11 06:30N 34°13' E 135°09'0 0.0
2017-Nov-11 06:00N 34°13' E 135°09'0 0.0
2017-Nov-11 05:30N 34°13' E 135°09'5 9.4
2017-Nov-11 05:00N 34°15' E 135°04'610.7
2017-Nov-11 04:26N 34°21' E 135°07'512.2
2017-Nov-11 04:00N 34°23' E 135°12'612.4
2017-Nov-11 03:30N 34°27' E 135°18'612.3
2017-Nov-11 03:00N 34°32' E 135°23'1 1.4
2017-Nov-11 02:30N 34°32' E 135°24'2 3.1
2017-Nov-11 02:00N 34°33' E 135°25'0 0.3
2017-Nov-11 01:30N 34°33' E 135°25'0 0.1
2017-Nov-11 00:58N 34°33' E 135°25'1 1.3
2017-Nov-11 00:29N 34°33' E 135°25'2 3.8
2017-Nov-11 00:00N 34°33' E 135°23'1 2.7
2017-Nov-10 23:30N 34°34' E 135°21'4 8.7
2017-Nov-10 23:00N 34°33' E 135°27'0 0.1
2017-Nov-10 22:30N 34°33' E 135°27'0 0.0
2017-Nov-10 22:00N 34°33' E 135°27'0 0.0
2017-Nov-10 21:26N 34°33' E 135°27'0 0.0
2017-Nov-10 20:14N 34°33' E 135°27'0 0.0
2017-Nov-10 19:01N 34°33' E 135°27'0 0.0
2017-Nov-10 18:43N 34°33' E 135°27'0 0.0
2017-Nov-10 18:29N 34°33' E 135°27'0 0.0
2017-Nov-10 18:00N 34°33' E 135°27'0 0.0
2017-Nov-10 17:30N 34°33' E 135°27'0 0.0
2017-Nov-10 16:38N 34°33' E 135°27'0 0.0
2017-Nov-10 16:28N 34°33' E 135°27'0 0.0
2017-Nov-10 15:59N 34°33' E 135°27'0 0.0
2017-Nov-10 15:28N 34°33' E 135°27'0 0.0
2017-Nov-10 14:59N 34°33' E 135°27'0 0.0
2017-Nov-10 13:54N 34°33' E 135°27'0 0.0
2017-Nov-10 13:20N 34°33' E 135°27'0 0.0
2017-Nov-10 12:50N 34°33' E 135°27'0 0.0
2017-Nov-10 12:28N 34°33' E 135°27'0 0.0
2017-Nov-10 12:00N 34°33' E 135°27'0 0.0
2017-Nov-10 11:30N 34°33' E 135°27'0 0.0
2017-Nov-10 11:00N 34°33' E 135°27'0 0.0
2017-Nov-10 10:25N 34°33' E 135°27'0 0.0
2017-Nov-10 09:41N 34°33' E 135°27'0 0.0
2017-Nov-10 08:34N 34°33' E 135°27'0 0.0
2017-Nov-10 08:29N 34°33' E 135°27'0 0.0
2017-Nov-10 08:00N 34°33' E 135°27'0 0.0
2017-Nov-10 07:29N 34°33' E 135°27'0 0.0
2017-Nov-10 07:00N 34°33' E 135°27'0 0.0
2017-Nov-10 06:25N 34°33' E 135°27'0 0.0
2017-Nov-10 06:00N 34°33' E 135°27'0 0.0
2017-Nov-10 05:25N 34°33' E 135°27'0 0.0
2017-Nov-10 04:07N 34°33' E 135°27'0 0.0
2017-Nov-10 03:50N 34°33' E 135°27'1 1.7
2017-Nov-10 03:28N 34°33' E 135°26'4 8.7
2017-Nov-10 02:57N 34°33' E 135°21'3 5.5
2017-Nov-10 02:24N 34°33' E 135°24'0 1.2
2017-Nov-10 02:00N 34°33' E 135°25'0 0.2
2017-Nov-10 01:27N 34°33' E 135°25'0 0.1
2017-Nov-10 00:59N 34°33' E 135°25'0 0.4
2017-Nov-10 00:30N 34°33' E 135°25'0 0.0
2017-Nov-09 23:58N 34°33' E 135°25'0 0.2
2017-Nov-09 23:30N 34°33' E 135°25'0 0.2
2017-Nov-09 23:00N 34°33' E 135°25'0 0.1
2017-Nov-09 22:30N 34°33' E 135°25'0 0.1
2017-Nov-09 22:00N 34°33' E 135°25'0 0.2
2017-Nov-09 21:30N 34°33' E 135°25'0 0.1
2017-Nov-09 21:00N 34°33' E 135°25'0 0.0
2017-Nov-09 20:30N 34°33' E 135°25'0 0.0
2017-Nov-09 20:00N 34°33' E 135°25'0 0.1
2017-Nov-09 19:30N 34°33' E 135°25'0 0.1
2017-Nov-09 19:00N 34°33' E 135°25'0 0.2
2017-Nov-09 18:30N 34°33' E 135°25'0 0.2
2017-Nov-09 18:00N 34°33' E 135°25'0 0.1
2017-Nov-09 17:30N 34°33' E 135°25'0 0.2
2017-Nov-09 17:01N 34°33' E 135°25'0 0.1
2017-Nov-09 16:30N 34°33' E 135°25'0 0.1
2017-Nov-09 16:00N 34°33' E 135°25'  

Dump ship's entire track history